Time;durP1;ratioP1;P1;durP2;ratioP2;P2;SDS_P1;SDS_P2;PMS_P1;PMS_P2;Temp;Humidity;BMP_temperature;BMP_pressure;BME280_temperature;BME280_humidity;BME280_pressure;Samples;Min_cycle;Max_cycle;Signal;HPM_P1;HPM_P2
2021/12/10 00:02:22;;;;;;;8.27;2.70;;;2.70;99.90;;;;;;5033277;28;20031;-87
2021/12/10 00:04:48;;;;;;;13.23;2.45;;;2.70;99.90;;;;;;5037781;28;20035;-86
2021/12/10 00:07:19;;;;;;;9.10;2.88;;;2.70;99.90;;;;;;5066740;28;20087;-86
2021/12/10 00:09:49;;;;;;;14.55;2.47;;;2.70;99.90;;;;;;5061896;28;20031;-86
2021/12/10 00:12:23;;;;;;;16.67;3.10;;;2.70;99.90;;;;;;5033778;28;20043;-86
2021/12/10 00:14:49;;;;;;;4.95;1.90;;;2.70;99.90;;;;;;5033750;28;20352;-86
2021/12/10 00:17:17;;;;;;;8.60;2.92;;;2.70;99.90;;;;;;5037245;28;20038;-86
2021/12/10 00:19:49;;;;;;;5.75;2.47;;;2.70;99.90;;;;;;5044288;28;20035;-86
2021/12/10 00:22:21;;;;;;;7.00;2.67;;;2.60;99.90;;;;;;5028311;28;20035;-86
2021/12/10 00:24:50;;;;;;;7.53;2.53;;;2.60;99.90;;;;;;5044291;28;20030;-86
2021/12/10 00:27:26;;;;;;;13.10;2.53;;;2.60;99.90;;;;;;5056803;28;20503;-86
2021/12/10 00:30:08;;;;;;;7.20;2.30;;;2.60;99.90;;;;;;5054153;28;20034;-86
2021/12/10 00:32:45;;;;;;;11.52;2.10;;;2.60;99.90;;;;;;4970164;28;20038;-87
2021/12/10 00:35:19;;;;;;;4.85;2.13;;;2.60;99.90;;;;;;5037327;28;20027;-86
2021/12/10 00:37:45;;;;;;;10.50;2.35;;;2.60;99.90;;;;;;4969348;28;20027;-86
2021/12/10 00:40:14;;;;;;;4.35;2.10;;;2.60;99.90;;;;;;5045228;28;20034;-87
2021/12/10 00:42:40;;;;;;;6.18;2.22;;;2.60;99.90;;;;;;5036775;28;20055;-86
2021/12/10 00:45:09;;;;;;;9.85;3.47;;;2.60;99.90;;;;;;4956121;28;20060;-86
2021/12/10 00:47:35;;;;;;;9.25;2.22;;;2.60;99.90;;;;;;5056956;28;20034;-86
2021/12/10 00:50:01;;;;;;;8.38;1.90;;;2.60;99.90;;;;;;5002881;28;20039;-86
2021/12/10 00:52:26;;;;;;;10.45;2.25;;;2.60;99.90;;;;;;5036484;28;20038;-86
2021/12/10 00:54:52;;;;;;;11.30;1.98;;;2.60;99.90;;;;;;5036312;28;20168;-86
2021/12/10 00:57:18;;;;;;;20.17;2.63;;;2.60;99.90;;;;;;5034123;28;20573;-87
2021/12/10 00:59:46;;;;;;;7.35;1.98;;;2.60;99.90;;;;;;5053173;28;20038;-86
2021/12/10 01:02:18;;;;;;;7.47;2.03;;;2.60;99.90;;;;;;5009096;28;20043;-85
2021/12/10 01:04:48;;;;;;;6.47;1.88;;;2.60;99.90;;;;;;5022955;28;20035;-86
2021/12/10 01:07:20;;;;;;;;;;;2.60;99.90;;;;;;4977827;28;20399;-86
2021/12/10 01:09:50;;;;;;;6.30;2.00;;;2.60;99.90;;;;;;5044974;28;19917;-86
2021/12/10 01:12:27;;;;;;;8.93;2.15;;;2.60;99.90;;;;;;5040831;28;20034;-86
2021/12/10 01:27:08;;;;;;;9.02;1.70;;;2.60;99.90;;;;;;4996014;28;20125;-85
2021/12/10 01:29:38;;;;;;;7.60;1.95;;;2.50;99.90;;;;;;5022649;28;20126;-86
2021/12/10 01:32:07;;;;;;;3.25;1.88;;;2.50;99.90;;;;;;4971375;28;20471;-86
2021/12/10 01:34:32;;;;;;;9.10;1.92;;;2.50;99.90;;;;;;5051791;28;20074;-85
2021/12/10 01:36:58;;;;;;;10.10;1.70;;;2.50;99.90;;;;;;4970171;28;20073;-85
2021/12/10 01:39:29;;;;;;;4.13;1.55;;;2.50;99.90;;;;;;5059711;28;20514;-86
2021/12/10 01:42:03;;;;;;;6.20;1.45;;;2.50;99.90;;;;;;5062958;28;20037;-85
2021/12/10 01:44:36;;;;;;;5.63;1.75;;;2.50;99.90;;;;;;5038507;28;20040;-86
2021/12/10 01:47:06;;;;;;;2.75;1.27;;;2.40;99.90;;;;;;4969864;28;20540;-86
2021/12/10 01:49:32;;;;;;;10.77;2.22;;;2.30;99.90;;;;;;5052120;28;20039;-86
2021/12/10 01:51:58;;;;;;;6.43;1.42;;;2.30;99.90;;;;;;5050280;28;20460;-86
2021/12/10 01:54:31;;;;;;;7.43;1.60;;;2.20;99.90;;;;;;5051408;28;20096;-86
2021/12/10 01:56:59;;;;;;;10.30;2.53;;;2.10;99.90;;;;;;5055683;28;20026;-85
2021/12/10 01:59:28;;;;;;;6.53;1.80;;;2.10;99.90;;;;;;5051876;28;20037;-86
2021/12/10 02:01:58;;;;;;;14.25;1.55;;;2.00;99.90;;;;;;5034753;28;20121;-85
2021/12/10 02:04:27;;;;;;;5.22;1.27;;;2.00;99.90;;;;;;4968310;28;20034;-86
2021/12/10 02:06:53;;;;;;;6.10;1.60;;;1.90;99.90;;;;;;5035449;28;20049;-86
2021/12/10 02:09:19;;;;;;;8.27;1.70;;;1.90;99.90;;;;;;5039347;28;20030;-86
2021/12/10 02:11:45;;;;;;;7.60;1.58;;;1.90;99.90;;;;;;5067552;28;20198;-86
2021/12/10 02:14:12;;;;;;;11.50;1.73;;;1.90;99.90;;;;;;4958784;28;20463;-86
2021/12/10 02:16:38;;;;;;;11.07;2.25;;;1.80;99.90;;;;;;5038997;28;20502;-86
2021/12/10 02:19:06;;;;;;;2.17;1.52;;;1.80;99.90;;;;;;5053373;28;20050;-86
2021/12/10 02:21:34;;;;;;;8.55;1.67;;;1.80;99.90;;;;;;5070787;28;20121;-86
2021/12/10 02:24:00;;;;;;;8.07;1.73;;;1.70;99.90;;;;;;5035940;28;20391;-85
2021/12/10 02:26:35;;;;;;;7.90;1.40;;;1.70;99.90;;;;;;5035371;28;20130;-86
2021/12/10 02:29:03;;;;;;;7.82;1.60;;;1.70;99.90;;;;;;5018084;28;20495;-86
2021/12/10 02:31:29;;;;;;;9.32;1.55;;;1.70;99.90;;;;;;5039057;28;20407;-86
2021/12/10 02:33:55;;;;;;;6.10;1.50;;;1.60;99.90;;;;;;5038494;28;20095;-86
2021/12/10 02:36:22;;;;;;;10.65;1.52;;;1.50;99.90;;;;;;5034797;28;20203;-85
2021/12/10 02:38:51;;;;;;;6.25;1.65;;;1.50;99.90;;;;;;5038743;28;20040;-86
2021/12/10 02:41:20;;;;;;;9.60;1.88;;;1.50;99.90;;;;;;5027422;28;20096;-86
2021/12/10 02:43:46;;;;;;;9.73;1.70;;;1.50;99.90;;;;;;5033578;28;20101;-86
2021/12/10 02:46:13;;;;;;;3.78;1.45;;;1.40;99.90;;;;;;5034018;28;20038;-85
2021/12/10 02:48:39;;;;;;;5.47;1.63;;;1.40;99.90;;;;;;5037156;28;20061;-86
2021/12/10 02:51:07;;;;;;;7.68;1.90;;;1.40;99.90;;;;;;5064259;28;20035;-86
2021/12/10 02:53:36;;;;;;;9.30;1.80;;;1.30;99.90;;;;;;5034749;28;20495;-86
2021/12/10 02:56:03;;;;;;;10.10;1.98;;;1.20;99.90;;;;;;5034759;28;20088;-86
2021/12/10 02:58:30;;;;;;;6.00;1.40;;;1.20;99.90;;;;;;4985718;28;20491;-86
2021/12/10 03:01:04;;;;;;;7.50;1.85;;;1.20;99.90;;;;;;5043086;28;20492;-86
2021/12/10 03:03:30;;;;;;;2.90;1.30;;;1.20;99.90;;;;;;5051293;28;20035;-86
2021/12/10 03:05:57;;;;;;;5.15;1.20;;;1.20;99.90;;;;;;5041606;28;20027;-86
2021/12/10 03:08:23;;;;;;;5.63;1.40;;;1.10;99.90;;;;;;5065775;28;20095;-85
2021/12/10 03:10:49;;;;;;;11.70;1.98;;;1.10;99.90;;;;;;5044230;28;20395;-86
2021/12/10 03:13:15;;;;;;;6.88;1.40;;;1.10;99.90;;;;;;5033871;28;20035;-86
2021/12/10 03:15:41;;;;;;;9.45;1.33;;;1.00;99.90;;;;;;5020460;28;20097;-85
2021/12/10 03:18:12;;;;;;;7.78;1.23;;;1.00;99.90;;;;;;5056860;28;20077;-86
2021/12/10 03:20:38;;;;;;;7.20;1.40;;;0.90;99.90;;;;;;5058650;28;20402;-85
2021/12/10 03:23:05;;;;;;;4.75;1.42;;;0.90;99.90;;;;;;5058106;28;20031;-86
2021/12/10 03:25:31;;;;;;;5.50;1.27;;;0.90;99.90;;;;;;5061188;28;20058;-86
2021/12/10 03:28:00;;;;;;;7.88;1.50;;;0.80;99.90;;;;;;5035293;28;20081;-86
2021/12/10 03:30:31;;;;;;;6.68;1.35;;;0.80;99.90;;;;;;5040043;28;20039;-86
2021/12/10 03:32:57;;;;;;;8.75;1.38;;;0.70;99.90;;;;;;5021955;28;20039;-85
2021/12/10 03:35:31;;;;;;;3.50;1.60;;;0.70;99.90;;;;;;4970568;28;20076;-85
2021/12/10 03:37:59;;;;;;;6.30;1.40;;;0.60;99.90;;;;;;5039860;28;20153;-86
2021/12/10 03:40:25;;;;;;;6.93;1.42;;;0.60;99.90;;;;;;5001574;28;20031;-84
2021/12/10 03:42:58;;;;;;;5.38;1.48;;;0.60;99.90;;;;;;5020796;28;20411;-85
2021/12/10 03:45:25;;;;;;;11.95;2.00;;;0.60;99.90;;;;;;5037896;28;20035;-86
2021/12/10 03:47:51;;;;;;;5.95;1.73;;;0.50;99.90;;;;;;5049424;28;20062;-86
2021/12/10 03:50:30;;;;;;;10.23;1.83;;;0.50;99.90;;;;;;5056193;28;20482;-86
2021/12/10 03:52:56;;;;;;;4.93;1.40;;;0.50;99.90;;;;;;5054637;28;20027;-86
2021/12/10 03:55:23;;;;;;;6.93;1.33;;;0.40;99.90;;;;;;5037359;28;20126;-86
2021/12/10 03:57:51;;;;;;;9.93;1.70;;;0.40;99.90;;;;;;5048469;28;20037;-85
2021/12/10 04:00:20;;;;;;;3.92;1.38;;;0.40;99.90;;;;;;5036072;28;20039;-85
2021/12/10 04:02:46;;;;;;;4.20;1.83;;;0.40;99.90;;;;;;5039786;28;20034;-85
2021/12/10 04:05:12;;;;;;;6.22;1.50;;;0.30;99.90;;;;;;5020838;28;20042;-85
2021/12/10 04:07:37;;;;;;;4.93;1.70;;;0.40;99.90;;;;;;5012941;28;20125;-85
2021/12/10 04:10:08;;;;;;;2.17;1.02;;;0.30;99.90;;;;;;5042205;28;20043;-86
2021/12/10 04:12:33;;;;;;;5.72;1.70;;;0.30;99.90;;;;;;4951317;29;20449;-86
2021/12/10 04:15:00;;;;;;;5.45;1.40;;;0.30;99.90;;;;;;5015103;28;20125;-87
2021/12/10 04:17:26;;;;;;;3.15;1.90;;;0.20;99.90;;;;;;5052322;28;20399;-86
2021/12/10 04:19:52;;;;;;;5.47;1.23;;;0.20;99.90;;;;;;5053601;28;20027;-85
2021/12/10 04:22:20;;;;;;;4.70;1.98;;;0.20;99.90;;;;;;5037703;28;20023;-86
2021/12/10 04:24:46;;;;;;;4.47;1.65;;;0.20;99.90;;;;;;4970901;28;20042;-85
2021/12/10 04:27:14;;;;;;;4.63;1.50;;;0.10;99.90;;;;;;5034897;28;20046;-85
2021/12/10 04:29:40;;;;;;;5.88;1.80;;;0.10;99.90;;;;;;5052252;28;20043;-85
2021/12/10 04:32:08;;;;;;;7.97;1.77;;;0.00;99.90;;;;;;4986051;28;20411;-85
2021/12/10 04:34:34;;;;;;;12.20;1.85;;;0.00;99.90;;;;;;5054291;28;20505;-86
2021/12/10 04:37:01;;;;;;;12.50;1.88;;;-0.10;99.90;;;;;;5052495;28;20045;-86
2021/12/10 04:39:29;;;;;;;7.55;2.15;;;-0.10;99.90;;;;;;5049584;28;20487;-86
2021/12/10 04:41:55;;;;;;;10.35;2.08;;;-0.10;99.90;;;;;;5055775;28;20407;-85
2021/12/10 04:44:21;;;;;;;3.03;1.92;;;-0.10;99.90;;;;;;5053334;28;20107;-86
2021/12/10 04:46:47;;;;;;;11.73;2.13;;;-0.20;99.90;;;;;;5037944;28;20507;-85
2021/12/10 04:49:14;;;;;;;6.78;1.90;;;-0.20;99.90;;;;;;5056316;28;20041;-85
2021/12/10 04:51:44;;;;;;;6.78;1.83;;;-0.20;99.90;;;;;;5022292;28;20118;-85
2021/12/10 04:54:11;;;;;;;9.50;2.38;;;-0.20;99.90;;;;;;5016756;28;20388;-85
2021/12/10 04:56:38;;;;;;;5.15;2.17;;;-0.10;99.90;;;;;;5024707;28;20040;-85
2021/12/10 04:59:06;;;;;;;4.35;2.28;;;-0.20;99.90;;;;;;5049960;28;20388;-86
2021/12/10 05:01:32;;;;;;;7.65;1.80;;;-0.20;99.90;;;;;;5056294;28;20031;-85
2021/12/10 05:03:58;;;;;;;6.45;1.67;;;-0.20;99.90;;;;;;5059175;28;20046;-85
2021/12/10 05:06:24;;;;;;;5.38;1.65;;;-0.20;99.90;;;;;;5035590;28;20487;-85
2021/12/10 05:08:50;;;;;;;5.05;1.73;;;-0.30;99.90;;;;;;5039655;28;20391;-86
2021/12/10 05:11:16;;;;;;;5.43;1.67;;;-0.30;99.90;;;;;;5054699;28;20515;-86
2021/12/10 05:13:44;;;;;;;8.27;1.90;;;-0.30;99.90;;;;;;5070192;28;20042;-85
2021/12/10 05:16:11;;;;;;;3.95;1.98;;;-0.30;99.90;;;;;;5068776;28;20105;-85
2021/12/10 05:18:40;;;;;;;5.25;1.85;;;-0.30;99.90;;;;;;4988627;28;20034;-85
2021/12/10 05:21:09;;;;;;;5.50;1.50;;;-0.30;99.90;;;;;;5039492;28;20027;-86
2021/12/10 05:23:35;;;;;;;9.57;2.03;;;-0.30;99.90;;;;;;5052638;28;20023;-86
2021/12/10 05:26:01;;;;;;;4.40;1.95;;;-0.30;99.90;;;;;;5068766;28;20530;-86
2021/12/10 05:28:28;;;;;;;4.95;1.92;;;-0.30;99.90;;;;;;5045406;28;20042;-85
2021/12/10 05:30:56;;;;;;;6.70;2.05;;;-0.30;99.90;;;;;;5035823;28;20494;-85
2021/12/10 05:33:24;;;;;;;1.65;1.40;;;-0.30;99.90;;;;;;4970853;28;20372;-86
2021/12/10 05:35:50;;;;;;;6.30;1.98;;;-0.30;99.90;;;;;;5049924;28;20041;-85
2021/12/10 05:38:17;;;;;;;21.40;2.70;;;-0.30;99.90;;;;;;4986058;28;20037;-86
2021/12/10 05:40:45;;;;;;;7.50;2.03;;;-0.30;99.90;;;;;;4988515;28;20033;-85
2021/12/10 05:43:10;;;;;;;3.03;1.50;;;-0.30;99.90;;;;;;5068543;28;20033;-86
2021/12/10 05:45:36;;;;;;;8.45;2.10;;;-0.30;99.90;;;;;;5034797;28;20031;-85
2021/12/10 05:48:03;;;;;;;14.05;2.45;;;-0.30;99.90;;;;;;5053009;28;20057;-85
2021/12/10 05:50:29;;;;;;;6.57;1.58;;;-0.30;99.90;;;;;;5052077;28;20035;-85
2021/12/10 05:52:55;;;;;;;10.40;2.10;;;-0.30;99.90;;;;;;5037461;28;20035;-85
2021/12/10 05:55:22;;;;;;;7.22;1.33;;;-0.30;99.90;;;;;;5054134;28;20038;-86
2021/12/10 05:57:48;;;;;;;5.75;2.25;;;-0.30;99.90;;;;;;5049774;28;20034;-86
2021/12/10 06:00:19;;;;;;;8.70;2.30;;;-0.30;99.90;;;;;;5070620;28;20402;-85
2021/12/10 06:02:45;;;;;;;10.15;1.90;;;-0.30;99.90;;;;;;5055586;28;20056;-86
2021/12/10 06:05:11;;;;;;;9.20;1.67;;;-0.30;99.90;;;;;;5071472;28;20465;-85
2021/12/10 06:07:38;;;;;;;7.55;1.88;;;-0.20;99.90;;;;;;5067219;28;20027;-85
2021/12/10 06:10:06;;;;;;;7.15;1.17;;;-0.20;99.90;;;;;;5026161;28;20035;-85
2021/12/10 06:12:32;;;;;;;9.80;1.25;;;-0.20;99.90;;;;;;5033900;28;20082;-86
2021/12/10 06:14:58;;;;;;;3.30;1.52;;;-0.20;99.90;;;;;;5034123;28;20108;-86
2021/12/10 06:17:24;;;;;;;11.88;1.65;;;-0.20;99.90;;;;;;5039507;28;20027;-85
2021/12/10 06:19:49;;;;;;;7.20;1.33;;;-0.20;99.90;;;;;;5044024;28;20681;-85
2021/12/10 06:22:15;;;;;;;13.52;1.65;;;-0.10;99.90;;;;;;5053576;28;20030;-86
2021/12/10 06:24:41;;;;;;;9.52;1.20;;;-0.10;99.90;;;;;;5047368;28;20058;-86
2021/12/10 06:27:07;;;;;;;4.38;1.40;;;-0.10;99.90;;;;;;5053812;28;20128;-85
2021/12/10 06:29:32;;;;;;;9.10;1.00;;;-0.10;99.90;;;;;;5042808;28;20463;-86
2021/12/10 06:31:58;;;;;;;6.97;1.10;;;-0.10;99.90;;;;;;4973800;23;20042;-87
2021/12/10 06:34:25;;;;;;;1.90;0.80;;;-0.10;99.90;;;;;;5024835;28;20033;-86
2021/12/10 06:36:51;;;;;;;12.57;1.02;;;-0.10;99.90;;;;;;5002915;28;20046;-86
2021/12/10 06:39:20;;;;;;;4.20;1.20;;;-0.10;99.90;;;;;;4990984;28;20063;-86
2021/12/10 06:41:51;;;;;;;5.25;1.33;;;-0.10;99.90;;;;;;4974798;28;20026;-86
2021/12/10 06:44:17;;;;;;;5.63;0.93;;;-0.10;99.90;;;;;;4990299;28;20474;-86
2021/12/10 06:46:44;;;;;;;7.93;1.10;;;-0.10;99.90;;;;;;5006746;28;20033;-86
2021/12/10 06:49:10;;;;;;;12.02;1.55;;;-0.10;99.90;;;;;;5013799;28;20041;-86
2021/12/10 06:51:36;;;;;;;1.88;0.73;;;-0.10;99.90;;;;;;5030439;28;20079;-86
2021/12/10 06:54:02;;;;;;;7.78;1.40;;;-0.10;99.90;;;;;;5002492;28;20057;-86
2021/12/10 06:56:29;;;;;;;9.25;1.10;;;-0.10;99.90;;;;;;4994425;28;20026;-86
2021/12/10 06:58:55;;;;;;;1.98;0.90;;;-0.10;99.90;;;;;;5010520;28;20036;-86
2021/12/10 07:01:31;;;;;;;2.15;0.63;;;-0.20;99.90;;;;;;5014143;28;20022;-86
2021/12/10 07:03:58;;;;;;;7.03;1.35;;;-0.20;99.90;;;;;;5010913;28;20064;-86
2021/12/10 07:06:26;;;;;;;4.13;1.38;;;-0.20;99.90;;;;;;5012222;28;20086;-86
2021/12/10 07:08:52;;;;;;;6.70;1.30;;;-0.20;99.90;;;;;;5007569;28;20029;-86
2021/12/10 07:11:20;;;;;;;6.07;1.13;;;-0.20;99.90;;;;;;4996863;28;20033;-86
2021/12/10 07:13:49;;;;;;;2.75;0.80;;;-0.20;99.90;;;;;;4968704;28;20072;-86
2021/12/10 07:16:16;;;;;;;4.07;1.08;;;-0.10;99.90;;;;;;4995639;28;20038;-87
2021/12/10 07:18:42;;;;;;;3.17;1.63;;;-0.20;99.90;;;;;;4981960;28;20035;-87
2021/12/10 07:21:08;;;;;;;2.38;1.25;;;-0.20;99.90;;;;;;4966213;28;20130;-87
2021/12/10 07:23:36;;;;;;;5.38;1.00;;;-0.20;99.90;;;;;;4996395;28;20041;-87
2021/12/10 07:26:02;;;;;;;7.63;1.13;;;-0.20;99.90;;;;;;4976632;28;20104;-86
2021/12/10 07:28:28;;;;;;;18.48;3.35;;;-0.20;99.90;;;;;;5013018;28;20021;-86
2021/12/10 07:30:53;;;;;;;17.63;4.03;;;-0.20;99.90;;;;;;4993323;28;20030;-86
2021/12/10 07:33:20;;;;;;;10.38;2.95;;;-0.20;99.90;;;;;;5009689;28;20068;-86
2021/12/10 07:35:47;;;;;;;7.88;1.75;;;-0.20;99.90;;;;;;5000141;28;20083;-85
2021/12/10 07:38:12;;;;;;;13.35;1.98;;;-0.10;99.90;;;;;;4984575;28;20029;-86
2021/12/10 07:40:39;;;;;;;8.90;1.35;;;-0.10;99.90;;;;;;4996579;28;20041;-86
2021/12/10 07:43:05;;;;;;;8.20;1.25;;;-0.10;99.90;;;;;;5007730;28;20029;-86
2021/12/10 07:45:31;;;;;;;2.17;1.00;;;0.00;99.90;;;;;;4991126;28;20026;-86
2021/12/10 07:47:59;;;;;;;1.58;0.70;;;0.00;99.90;;;;;;4994061;28;20022;-87
2021/12/10 07:50:30;;;;;;;10.18;1.20;;;0.10;99.90;;;;;;5008400;28;20112;-86
2021/12/10 07:52:56;;;;;;;;;;;0.10;99.90;;;;;;5004703;28;20117;-86
2021/12/10 07:55:29;;;;;;;2.67;1.10;;;0.20;99.90;;;;;;5011169;28;19909;-86
2021/12/10 07:57:55;;;;;;;2.08;1.10;;;0.20;99.90;;;;;;5009789;28;20562;-86
2021/12/10 08:00:24;;;;;;;2.83;1.08;;;0.30;99.90;;;;;;4992875;28;20109;-86
2021/12/10 08:02:50;;;;;;;7.53;2.10;;;0.30;99.90;;;;;;4992839;28;20029;-86
2021/12/10 08:05:16;;;;;;;8.68;1.42;;;0.40;99.90;;;;;;4987819;28;20059;-86
2021/12/10 08:07:42;;;;;;;11.20;2.35;;;0.50;99.90;;;;;;4999648;28;20030;-86
2021/12/10 08:10:09;;;;;;;7.10;1.10;;;0.50;99.90;;;;;;4995469;28;20553;-87
2021/12/10 08:12:35;;;;;;;2.35;1.10;;;0.60;99.90;;;;;;5029810;28;20420;-86
2021/12/10 08:15:02;;;;;;;5.70;0.90;;;0.60;99.90;;;;;;4976851;28;20038;-87
2021/12/10 08:17:27;;;;;;;6.03;1.05;;;0.70;99.90;;;;;;4983195;28;20060;-87
2021/12/10 08:19:53;;;;;;;4.40;1.00;;;0.70;99.90;;;;;;4988331;28;20478;-86
2021/12/10 08:22:20;;;;;;;7.60;1.38;;;0.80;99.90;;;;;;5008740;28;20021;-87
2021/12/10 08:24:46;;;;;;;7.15;1.25;;;0.90;99.90;;;;;;5011721;28;20036;-87
2021/12/10 08:27:12;;;;;;;10.85;1.52;;;0.90;99.90;;;;;;5001239;28;20042;-87
2021/12/10 08:29:41;;;;;;;1.92;0.98;;;1.00;99.90;;;;;;5003599;28;20496;-87
2021/12/10 08:32:07;;;;;;;9.98;1.45;;;1.00;99.90;;;;;;5012011;28;20396;-86
2021/12/10 08:34:33;;;;;;;7.18;1.08;;;1.00;99.90;;;;;;5016914;28;20120;-86
2021/12/10 08:36:59;;;;;;;5.47;1.63;;;1.10;99.90;;;;;;5007381;28;20633;-87
2021/12/10 08:39:24;;;;;;;3.10;1.33;;;1.10;99.90;;;;;;5011301;28;20082;-87
2021/12/10 08:41:51;;;;;;;4.53;1.35;;;1.10;99.90;;;;;;4964638;28;20394;-87
2021/12/10 08:44:17;;;;;;;4.13;1.13;;;1.10;99.90;;;;;;4982784;28;20032;-87
2021/12/10 08:46:44;;;;;;;6.95;1.30;;;1.20;99.90;;;;;;5008968;28;20044;-87
2021/12/10 08:49:10;;;;;;;4.82;1.35;;;1.20;99.90;;;;;;5007998;28;20029;-87
2021/12/10 08:51:43;;;;;;;2.95;1.33;;;1.20;99.90;;;;;;5027532;28;20032;-87
2021/12/10 08:54:10;;;;;;;5.72;1.65;;;1.20;99.90;;;;;;5029018;28;20400;-87
2021/12/10 08:56:37;;;;;;;5.90;1.58;;;1.30;99.90;;;;;;5011499;28;20500;-87
2021/12/10 08:59:05;;;;;;;8.95;2.30;;;1.30;99.90;;;;;;4978549;28;20041;-87
2021/12/10 09:01:36;;;;;;;4.53;1.73;;;1.30;99.90;;;;;;4988540;28;20116;-87
2021/12/10 09:04:06;;;;;;;5.43;1.45;;;1.30;99.90;;;;;;5005635;28;20089;-87
2021/12/10 09:06:34;;;;;;;3.25;1.50;;;1.30;99.90;;;;;;5009925;28;20048;-87
2021/12/10 09:09:01;;;;;;;2.70;1.38;;;1.40;99.90;;;;;;4993720;28;20033;-87
2021/12/10 09:11:28;;;;;;;8.75;2.05;;;1.40;99.90;;;;;;5008470;28;20109;-86
2021/12/10 09:13:54;;;;;;;4.15;1.95;;;1.40;99.90;;;;;;4998478;28;20037;-87
2021/12/10 09:16:27;;;;;;;7.35;1.75;;;1.40;99.90;;;;;;5004199;28;20490;-87
2021/12/10 09:18:57;;;;;;;7.38;1.77;;;1.40;99.90;;;;;;5000151;28;20041;-87
2021/12/10 09:21:23;;;;;;;;;;;1.40;99.90;;;;;;4971802;28;20027;-87
2021/12/10 09:23:50;;;;;;;10.10;1.70;;;1.40;99.90;;;;;;4971321;28;19909;-87
2021/12/10 09:26:19;;;;;;;5.28;2.00;;;1.40;99.90;;;;;;4970963;28;20043;-87
2021/12/10 09:28:47;;;;;;;6.43;1.83;;;1.40;99.90;;;;;;4988804;28;20437;-87
2021/12/10 09:31:13;;;;;;;4.93;2.15;;;1.40;99.90;;;;;;4955593;28;20109;-87
2021/12/10 09:33:39;;;;;;;5.70;1.83;;;1.40;99.90;;;;;;4971596;28;20042;-87
2021/12/10 09:36:06;;;;;;;2.88;1.63;;;1.50;99.90;;;;;;4987722;28;20023;-88
2021/12/10 09:38:32;;;;;;;5.50;1.95;;;1.50;99.90;;;;;;4971110;28;20125;-88
2021/12/10 09:41:03;;;;;;;6.18;2.00;;;1.50;99.90;;;;;;4971218;28;20084;-87
2021/12/10 09:43:30;;;;;;;3.47;1.73;;;1.50;99.90;;;;;;4955529;28;20035;-87
2021/12/10 09:45:56;;;;;;;7.70;2.13;;;1.60;99.90;;;;;;4970497;28;20440;-88
2021/12/10 09:48:24;;;;;;;2.65;1.70;;;1.60;99.90;;;;;;4971220;28;20035;-88
2021/12/10 09:51:06;;;;;;;5.22;2.03;;;1.60;99.90;;;;;;4955148;28;20030;-87
2021/12/10 09:53:33;;;;;;;3.22;1.20;;;1.70;99.90;;;;;;4972122;28;20031;-88
2021/12/10 09:56:00;;;;;;;5.57;1.80;;;1.80;99.90;;;;;;4938510;28;20061;-87
2021/12/10 09:58:27;;;;;;;4.18;1.30;;;1.80;99.90;;;;;;4955224;28;20455;-87
2021/12/10 10:01:31;;;;;;;4.30;1.42;;;1.80;99.90;;;;;;4955003;28;20200;-88
2021/12/10 10:04:02;;;;;;;3.25;1.15;;;1.90;99.90;;;;;;4970539;28;20068;-88
2021/12/10 10:06:30;;;;;;;3.80;1.20;;;1.90;99.90;;;;;;4970563;28;20038;-87
2021/12/10 10:08:55;;;;;;;9.20;1.75;;;2.00;99.90;;;;;;4954993;28;20042;-87
2021/12/10 10:11:26;;;;;;;5.72;2.25;;;2.10;99.90;;;;;;4954888;28;20145;-87
2021/12/10 10:13:57;;;;;;;8.63;2.53;;;2.10;99.90;;;;;;4970872;28;20456;-88
2021/12/10 10:16:25;;;;;;;15.18;4.90;;;2.20;99.90;;;;;;4938513;28;20034;-87
2021/12/10 10:18:52;;;;;;;20.10;7.28;;;2.20;99.90;;;;;;4955067;28;20091;-87
2021/12/10 10:21:28;;;;;;;11.70;4.65;;;2.20;99.90;;;;;;4970385;28;20057;-87
2021/12/10 10:23:54;;;;;;;7.32;2.83;;;2.30;99.90;;;;;;4954623;28;20044;-88
2021/12/10 10:26:32;;;;;;;2.90;1.63;;;2.30;99.90;;;;;;4970052;28;20087;-87
2021/12/10 10:29:11;;;;;;;4.53;1.50;;;2.30;99.90;;;;;;4954876;28;20041;-87
2021/12/10 10:31:41;;;;;;;1.88;1.17;;;2.30;99.90;;;;;;4987914;28;20049;-88
2021/12/10 10:34:08;;;;;;;5.00;1.30;;;2.30;99.90;;;;;;4970546;28;20282;-87
2021/12/10 10:36:34;;;;;;;2.85;1.17;;;2.20;99.90;;;;;;4969748;28;20524;-88
2021/12/10 10:39:13;;;;;;;4.50;1.58;;;2.20;99.90;;;;;;4954309;28;20030;-88
2021/12/10 10:41:43;;;;;;;4.57;1.27;;;2.20;99.90;;;;;;4971763;28;20399;-87
2021/12/10 10:44:09;;;;;;;2.50;0.90;;;2.20;99.90;;;;;;4954675;28;20033;-88
2021/12/10 10:46:35;;;;;;;2.33;1.20;;;2.10;99.90;;;;;;4953860;28;20035;-87
2021/12/10 10:49:02;;;;;;;5.65;1.52;;;2.20;99.90;;;;;;4988160;28;20041;-88
2021/12/10 10:51:36;;;;;;;1.55;1.10;;;2.10;99.90;;;;;;4987660;28;20022;-88
2021/12/10 10:54:06;;;;;;;6.88;1.30;;;2.10;99.90;;;;;;4954391;28;20079;-87
2021/12/10 10:56:39;;;;;;;2.20;1.20;;;2.10;99.90;;;;;;4969248;28;20121;-87
2021/12/10 10:59:20;;;;;;;1.20;1.05;;;2.10;99.90;;;;;;4954180;28;20027;-88
2021/12/10 11:01:57;;;;;;;4.60;1.23;;;2.10;99.90;;;;;;4954427;28;20022;-88
2021/12/10 11:04:31;;;;;;;4.10;1.38;;;2.00;99.90;;;;;;4955151;28;20026;-88
2021/12/10 11:07:08;;;;;;;2.40;1.10;;;2.00;99.90;;;;;;4954473;28;20034;-88
2021/12/10 11:09:41;;;;;;;1.77;0.73;;;2.00;99.90;;;;;;4954796;28;20137;-88
2021/12/10 11:12:12;;;;;;;2.88;1.60;;;2.00;99.90;;;;;;4987401;28;20030;-88
2021/12/10 11:14:43;;;;;;;4.18;1.05;;;2.00;99.90;;;;;;4954274;28;20031;-88
2021/12/10 11:17:20;;;;;;;;;;;2.00;99.90;;;;;;4969964;28;20031;-87
2021/12/10 11:19:53;;;;;;;4.07;1.13;;;2.00;99.90;;;;;;4986166;28;19905;-88
2021/12/10 11:22:21;;;;;;;5.95;1.52;;;2.00;99.90;;;;;;4954002;28;20038;-87
2021/12/10 11:24:54;;;;;;;1.77;1.10;;;1.90;99.90;;;;;;4938194;28;20026;-87
2021/12/10 11:27:22;;;;;;;4.57;1.20;;;1.90;99.90;;;;;;4986814;28;20038;-87
2021/12/10 11:30:01;;;;;;;8.38;1.55;;;1.90;99.90;;;;;;4954092;28;20034;-88
2021/12/10 11:32:33;;;;;;;4.00;1.23;;;1.90;99.90;;;;;;4955258;28;20053;-88
2021/12/10 11:35:08;;;;;;;2.75;1.38;;;1.90;99.90;;;;;;4972796;28;20057;-88
2021/12/10 11:38:05;;;;;;;3.08;1.38;;;1.90;99.90;;;;;;4972676;28;20030;-88
2021/12/10 11:40:49;;;;;;;5.63;1.25;;;1.80;99.90;;;;;;4973653;28;20035;-87
2021/12/10 11:44:18;;;;;;;5.38;1.30;;;1.80;99.90;;;;;;4973303;28;20441;-88
2021/12/10 11:49:38;;;;;;;6.45;1.35;;;1.80;99.90;;;;;;4973501;28;20035;-88
2021/12/10 11:52:11;;;;;;;5.00;1.67;;;1.80;99.90;;;;;;4972876;28;20037;-88
2021/12/10 11:55:13;;;;;;;4.35;1.55;;;1.90;99.90;;;;;;4972666;28;20026;-88
2021/12/10 11:57:42;;;;;;;2.67;1.38;;;1.90;99.90;;;;;;4962765;28;20039;-88
2021/12/10 12:00:18;;;;;;;5.00;1.30;;;2.00;99.90;;;;;;4973288;28;20038;-88
2021/12/10 12:02:54;;;;;;;4.63;1.40;;;2.00;99.90;;;;;;4972528;28;20064;-88
2021/12/10 12:05:24;;;;;;;3.08;1.67;;;2.10;99.90;;;;;;4990108;28;20030;-87
2021/12/10 12:07:52;;;;;;;2.95;1.40;;;2.10;99.90;;;;;;5040714;28;20030;-88
2021/12/10 12:10:24;;;;;;;4.13;1.15;;;2.10;99.90;;;;;;4941205;28;20038;-88
2021/12/10 12:13:03;;;;;;;3.25;0.98;;;2.10;99.90;;;;;;4989954;28;20063;-88
2021/12/10 12:15:36;;;;;;;3.13;0.95;;;2.10;99.90;;;;;;4956576;28;20034;-88
2021/12/10 12:18:29;;;;;;;2.22;1.05;;;2.20;99.90;;;;;;4956420;28;20125;-88
2021/12/10 12:21:37;;;;;;;2.65;1.20;;;2.20;99.90;;;;;;4972674;28;20026;-88
2021/12/10 12:26:35;;;;;;;1.65;1.10;;;2.30;99.90;;;;;;4975140;28;20068;-88
2021/12/10 12:29:07;;;;;;;5.10;1.10;;;2.30;99.90;;;;;;4972391;28;20030;-88
2021/12/10 12:31:37;;;;;;;1.00;0.90;;;2.40;99.90;;;;;;4972376;28;20108;-88
2021/12/10 12:34:05;;;;;;;2.60;0.95;;;2.40;99.90;;;;;;5057380;23;20509;-81
2021/12/10 12:36:34;;;;;;;1.27;0.80;;;2.50;99.90;;;;;;5054636;28;20043;-81
2021/12/10 12:39:01;;;;;;;2.15;1.10;;;2.50;99.90;;;;;;5071435;28;20337;-81
2021/12/10 12:41:34;;;;;;;1.27;0.80;;;2.60;99.90;;;;;;5071611;28;20439;-82
2021/12/10 12:44:21;;;;;;;1.27;0.85;;;2.60;99.90;;;;;;5054595;28;20111;-81
2021/12/10 12:46:59;;;;;;;1.70;1.05;;;2.50;99.90;;;;;;5070699;28;20452;-81
2021/12/10 12:49:30;;;;;;;2.35;1.30;;;2.50;99.90;;;;;;5070922;28;20029;-81
2021/12/10 12:52:09;;;;;;;0.85;0.80;;;2.50;99.90;;;;;;5054419;28;20552;-81
2021/12/10 12:54:40;;;;;;;2.00;0.70;;;2.50;99.90;;;;;;5070886;28;20074;-81
2021/12/10 12:57:06;;;;;;;;;;;2.50;99.90;;;;;;5054828;28;20043;-81
2021/12/10 12:59:33;;;;;;;1.95;1.10;;;2.50;99.90;;;;;;5054218;28;19970;-81
2021/12/10 13:02:07;;;;;;;1.15;0.88;;;2.40;99.90;;;;;;5038404;28;20074;-81
2021/12/10 13:04:40;;;;;;;3.08;1.20;;;2.40;99.90;;;;;;5071044;28;20031;-81
2021/12/10 13:07:16;;;;;;;1.50;1.05;;;2.40;99.90;;;;;;5072370;28;20058;-81
2021/12/10 13:09:52;;;;;;;1.92;1.05;;;2.30;99.90;;;;;;5054724;28;20043;-81
2021/12/10 13:15:22;;;;;;;2.25;0.75;;;2.30;99.90;;;;;;5072329;28;20032;-81
2021/12/10 13:17:54;;;;;;;1.98;1.02;;;2.30;99.90;;;;;;5053798;28;20140;-81
2021/12/10 13:20:23;;;;;;;3.13;1.13;;;2.30;99.90;;;;;;5054869;28;20127;-81
2021/12/10 13:22:53;;;;;;;1.27;0.98;;;2.30;99.90;;;;;;5054471;28;20056;-82
2021/12/10 13:25:22;;;;;;;1.60;0.80;;;2.30;99.90;;;;;;5054453;28;20024;-81
2021/12/10 13:27:47;;;;;;;4.38;2.13;;;2.30;99.90;;;;;;5054550;28;20029;-82